Gaschem Phoenix — ELUO6 — position and weather

sailwx.info

Track history (hours):
 
Tides and Currents Weather Stations Pressure Air Temp Water Temp Dewpoint Dewpoint Depression Visibility Wind Speed Wind Dir Waves Ship Positions

Gaschem Phoenix

Last reported at 2017-May-19 17:19 UTC. Time now 2017-May-26 01:52 UTC.
Position N 31°18' E 123°33'.

Length 100 m; draft 4.4 m.

Type: Ship. MMSI: 636090235.

Date/timePositionNaut miles runAvg speedWind from/ knotsBaromVisibWave heightAir tempDewpointWater temp
2017-May-19 17:19N 31°18' E 123°33'412.2
2017-May-19 17:00N 31°16' E 123°28'1112.3
2017-May-19 16:07N 31°10' E 123°17'3412.6
2017-May-19 13:27N 30°56' E 122°42'2313.4
2017-May-19 11:44N 30°46' E 122°18'17 0.5
2017-May-17 22:56N 30°32' E 122°06'510.1
2017-May-17 22:25N 30°34' E 122°12'611.1
2017-May-17 21:53N 30°40' E 122°14'17 8.5
2017-May-17 19:53N 30°52' E 122°28'411.1
2017-May-17 19:30N 30°53' E 122°33'611.1
2017-May-17 19:01N 30°54' E 122°39'611.3
2017-May-17 18:31N 30°55' E 122°45'611.4
2017-May-17 18:00N 30°55' E 122°52'910.1
2017-May-17 17:09N 31°02' E 122°58'211.4
2017-May-17 17:00N 31°03' E 122°59'911.2
2017-May-17 16:10N 31°08' E 123°09'211.3
2017-May-17 16:01N 31°09' E 123°11'611.6
2017-May-17 15:31N 31°11' E 123°17'3311.8
2017-May-17 12:42N 31°26' E 123°52'212.2
2017-May-17 12:30N 31°27' E 123°54'712.1
2017-May-17 11:57N 31°30' E 124°01'  
Track history (hours):
 
Tides and Currents Weather Stations Pressure Air Temp Water Temp Dewpoint Dewpoint Depression Visibility Wind Speed Wind Dir Waves Ship Positions

Gaschem Phoenix

Last reported at 2017-May-19 17:19 UTC. Time now 2017-May-26 01:52 UTC.
Position N 31°18' E 123°33'.

Length 100 m; draft 4.4 m.

Type: Ship. MMSI: 636090235.

Date/timePositionNaut miles runAvg speedWind from/ knotsBaromVisibWave heightAir tempDewpointWater temp
2017-May-19 17:19N 31°18' E 123°33'412.2
2017-May-19 17:00N 31°16' E 123°28'1112.3
2017-May-19 16:07N 31°10' E 123°17'3412.6
2017-May-19 13:27N 30°56' E 122°42'2313.4
2017-May-19 11:44N 30°46' E 122°18'17 0.5
2017-May-17 22:56N 30°32' E 122°06'510.1
2017-May-17 22:25N 30°34' E 122°12'611.1
2017-May-17 21:53N 30°40' E 122°14'17 8.5
2017-May-17 19:53N 30°52' E 122°28'411.1
2017-May-17 19:30N 30°53' E 122°33'611.1
2017-May-17 19:01N 30°54' E 122°39'611.3
2017-May-17 18:31N 30°55' E 122°45'611.4
2017-May-17 18:00N 30°55' E 122°52'910.1
2017-May-17 17:09N 31°02' E 122°58'211.4
2017-May-17 17:00N 31°03' E 122°59'911.2
2017-May-17 16:10N 31°08' E 123°09'211.3
2017-May-17 16:01N 31°09' E 123°11'611.6
2017-May-17 15:31N 31°11' E 123°17'3311.8
2017-May-17 12:42N 31°26' E 123°52'212.2
2017-May-17 12:30N 31°27' E 123°54'712.1
2017-May-17 11:57N 31°30' E 124°01'  

Dump ship's entire track history